Time;durP1;ratioP1;P1;durP2;ratioP2;P2;SDS_P1;SDS_P2;PMS_P1;PMS_P2;Temp;Humidity;BMP_temperature;BMP_pressure;BME280_temperature;BME280_humidity;BME280_pressure;Samples;Min_cycle;Max_cycle;Signal;HPM_P1;HPM_P2
2022/07/18 00:02:27;;;;;;;0.20;0.20;;;17.70;99.90;;;;;;5066989;28;20377;-78
2022/07/18 00:04:53;;;;;;;0.20;0.20;;;17.60;99.90;;;;;;5063842;28;20047;-78
2022/07/18 00:07:19;;;;;;;0.10;0.10;;;17.80;99.90;;;;;;5075127;28;20052;-78
2022/07/18 00:09:44;;;;;;;0.20;0.20;;;17.70;99.90;;;;;;5063416;28;20041;-78
2022/07/18 00:12:11;;;;;;;0.20;0.20;;;17.80;99.90;;;;;;5065788;28;20139;-78
2022/07/18 00:14:37;;;;;;;0.20;0.20;;;17.70;99.90;;;;;;5054105;28;20075;-78
2022/07/18 00:17:04;;;;;;;0.20;0.20;;;17.70;99.90;;;;;;5062094;28;20048;-78
2022/07/18 00:19:33;;;;;;;0.20;0.20;;;17.70;99.90;;;;;;5068046;28;20778;-78
2022/07/18 00:21:59;;;;;;;0.20;0.20;;;17.60;99.90;;;;;;5071884;28;20355;-78
2022/07/18 00:24:24;;;;;;;0.20;0.20;;;17.20;99.90;;;;;;5065575;28;20040;-78
2022/07/18 00:26:50;;;;;;;0.10;0.10;;;17.60;99.90;;;;;;5069105;28;20400;-78
2022/07/18 00:29:16;;;;;;;0.17;0.17;;;17.60;99.90;;;;;;5068764;28;20119;-78
2022/07/18 00:31:41;;;;;;;0.20;0.20;;;17.60;99.90;;;;;;5060458;28;20052;-78
2022/07/18 00:34:07;;;;;;;0.20;0.20;;;17.60;99.90;;;;;;5049152;28;20044;-78
2022/07/18 00:36:33;;;;;;;0.30;0.30;;;17.60;99.90;;;;;;5066949;28;20134;-78
2022/07/18 00:39:02;;;;;;;0.13;0.13;;;17.60;99.90;;;;;;5067014;28;20089;-78
2022/07/18 00:41:31;;;;;;;0.17;0.17;;;18.30;99.90;;;;;;5068042;28;20055;-78
2022/07/18 00:43:57;;;;;;;0.20;0.20;;;17.50;99.90;;;;;;5074258;28;20189;-78
2022/07/18 00:46:27;;;;;;;0.20;0.20;;;17.50;99.90;;;;;;5055626;28;20171;-78
2022/07/18 00:48:52;;;;;;;0.20;0.20;;;17.50;99.90;;;;;;5074905;28;20093;-78
2022/07/18 00:51:19;;;;;;;0.20;0.20;;;17.50;99.90;;;;;;5057328;28;20507;-78
2022/07/18 00:53:46;;;;;;;0.20;0.20;;;17.40;99.90;;;;;;5065466;28;20040;-78
2022/07/18 00:56:14;;;;;;;0.20;0.20;;;17.40;99.90;;;;;;5074555;28;20052;-78
2022/07/18 00:58:44;;;;;;;0.20;0.20;;;17.40;99.90;;;;;;5069955;28;20048;-78
2022/07/18 01:03:54;;;;;;;0.20;0.20;;;17.40;99.90;;;;;;5069556;28;20048;-78
2022/07/18 01:06:20;;;;;;;0.20;0.20;;;17.20;99.90;;;;;;5058346;28;20678;-78
2022/07/18 01:08:46;;;;;;;0.20;0.20;;;17.30;99.90;;;;;;5069326;28;20072;-78
2022/07/18 01:11:12;;;;;;;0.20;0.20;;;17.30;99.90;;;;;;5067337;28;20045;-78
2022/07/18 01:13:38;;;;;;;0.20;0.20;;;17.30;99.90;;;;;;5061930;28;20029;-78
2022/07/18 01:16:04;;;;;;;0.20;0.20;;;17.30;99.90;;;;;;5064818;28;20122;-78
2022/07/18 01:18:33;;;;;;;0.20;0.20;;;17.30;99.90;;;;;;5072848;28;20123;-78
2022/07/18 01:20:59;;;;;;;0.10;0.10;;;17.20;99.90;;;;;;5072437;28;20407;-78
2022/07/18 01:23:24;;;;;;;0.20;0.20;;;17.20;99.90;;;;;;5063952;28;20075;-78
2022/07/18 01:25:51;;;;;;;0.10;0.10;;;17.20;99.90;;;;;;5071700;28;20040;-78
2022/07/18 01:28:19;;;;;;;0.20;0.20;;;17.20;99.90;;;;;;5057907;28;20036;-78
2022/07/18 01:30:45;;;;;;;0.20;0.20;;;17.10;99.90;;;;;;5065996;28;20047;-78
2022/07/18 01:33:10;;;;;;;0.10;0.10;;;17.10;99.90;;;;;;5062260;28;20407;-78
2022/07/18 01:35:36;;;;;;;0.20;0.20;;;17.10;99.90;;;;;;5058665;28;20388;-78
2022/07/18 01:38:02;;;;;;;0.20;0.20;;;17.00;99.90;;;;;;5059384;28;20041;-78
2022/07/18 01:40:28;;;;;;;0.10;0.10;;;17.00;99.90;;;;;;5077107;28;20485;-78
2022/07/18 01:42:54;;;;;;;0.20;0.20;;;17.10;99.90;;;;;;5076692;28;20040;-78
2022/07/18 01:45:21;;;;;;;0.17;0.17;;;17.00;99.90;;;;;;5066264;28;20667;-78
2022/07/18 01:47:47;;;;;;;0.20;0.20;;;17.00;99.90;;;;;;5071415;28;20584;-78
2022/07/18 01:50:16;;;;;;;0.20;0.20;;;16.90;99.90;;;;;;5053255;28;20114;-79
2022/07/18 01:52:42;;;;;;;0.10;0.10;;;16.90;99.90;;;;;;5061952;28;20087;-78
2022/07/18 01:55:10;;;;;;;0.20;0.20;;;16.90;99.90;;;;;;5067178;28;20052;-78
2022/07/18 01:57:36;;;;;;;0.20;0.20;;;16.90;99.90;;;;;;5066700;28;20045;-78
2022/07/18 02:00:04;;;;;;;0.20;0.20;;;16.90;99.90;;;;;;5066094;28;20037;-78
2022/07/18 02:02:32;;;;;;;0.20;0.20;;;16.90;99.90;;;;;;5081314;28;20135;-78
2022/07/18 02:05:01;;;;;;;0.20;0.20;;;16.80;99.90;;;;;;5073239;28;20052;-78
2022/07/18 02:07:28;;;;;;;0.20;0.20;;;16.70;99.90;;;;;;5061522;28;20044;-78
2022/07/18 02:09:55;;;;;;;0.20;0.20;;;16.70;99.90;;;;;;5076192;28;20492;-78
2022/07/18 02:12:21;;;;;;;0.20;0.20;;;16.70;99.90;;;;;;5068970;28;20040;-78
2022/07/18 02:14:50;;;;;;;0.20;0.20;;;16.70;99.90;;;;;;5058729;28;20102;-78
2022/07/18 02:17:17;;;;;;;0.10;0.10;;;16.80;99.90;;;;;;5068849;28;20040;-77
2022/07/18 02:19:43;;;;;;;0.20;0.20;;;16.70;99.90;;;;;;5065423;28;20045;-78
2022/07/18 02:22:11;;;;;;;0.20;0.20;;;16.80;99.90;;;;;;5059828;28;20557;-78
2022/07/18 02:24:37;;;;;;;0.20;0.20;;;16.70;99.90;;;;;;5062042;28;20050;-78
2022/07/18 02:27:03;;;;;;;0.20;0.20;;;16.60;99.90;;;;;;5062735;28;20060;-78
2022/07/18 02:29:29;;;;;;;0.20;0.20;;;16.60;99.90;;;;;;5063967;28;20060;-78
2022/07/18 02:31:54;;;;;;;0.10;0.10;;;16.60;99.90;;;;;;5069850;28;20455;-78
2022/07/18 02:34:20;;;;;;;0.20;0.20;;;16.60;99.90;;;;;;5077336;28;20113;-78
2022/07/18 02:36:46;;;;;;;0.20;0.20;;;16.60;99.90;;;;;;5074473;28;20139;-78
2022/07/18 02:39:11;;;;;;;0.20;0.20;;;16.60;99.90;;;;;;5068302;28;20041;-78
2022/07/18 02:41:40;;;;;;;0.10;0.10;;;16.60;99.90;;;;;;5062020;28;20121;-77
2022/07/18 02:44:11;;;;;;;0.20;0.20;;;16.60;99.90;;;;;;5067697;28;20131;-78
2022/07/18 02:46:37;;;;;;;0.20;0.20;;;16.60;99.90;;;;;;5053436;28;20586;-78
2022/07/18 02:49:03;;;;;;;0.20;0.20;;;16.60;99.90;;;;;;5070563;28;20139;-77
2022/07/18 02:51:28;;;;;;;0.10;0.10;;;16.60;99.90;;;;;;5073871;28;20483;-78
2022/07/18 02:53:54;;;;;;;0.20;0.20;;;16.60;99.90;;;;;;5065483;28;20086;-77
2022/07/18 02:56:20;;;;;;;0.20;0.20;;;16.60;99.90;;;;;;5060209;28;20110;-77
2022/07/18 02:58:46;;;;;;;0.20;0.20;;;16.60;99.90;;;;;;5069869;28;20053;-77
2022/07/18 03:01:12;;;;;;;0.20;0.20;;;16.60;99.90;;;;;;5073106;28;20089;-77
2022/07/18 03:03:37;;;;;;;0.20;0.20;;;16.60;99.90;;;;;;5073686;28;20044;-77
2022/07/18 03:06:03;;;;;;;0.20;0.20;;;16.60;99.90;;;;;;5063859;28;20091;-78
2022/07/18 03:08:29;;;;;;;0.20;0.20;;;16.60;99.90;;;;;;5057709;28;20036;-78
2022/07/18 03:10:55;;;;;;;0.20;0.20;;;16.60;99.90;;;;;;5073765;28;20464;-78
2022/07/18 03:13:21;;;;;;;0.10;0.10;;;16.60;99.90;;;;;;5061680;28;20112;-78
2022/07/18 03:15:47;;;;;;;0.20;0.20;;;16.60;99.90;;;;;;5053376;28;20049;-78
2022/07/18 03:18:12;;;;;;;0.20;0.20;;;16.60;99.90;;;;;;5077384;28;20135;-78
2022/07/18 03:20:38;;;;;;;0.20;0.20;;;16.60;99.90;;;;;;5068056;28;20123;-77
2022/07/18 03:23:05;;;;;;;0.20;0.20;;;16.70;99.90;;;;;;5067242;28;20495;-77
2022/07/18 03:25:31;;;;;;;0.20;0.20;;;16.60;99.90;;;;;;5069453;28;20093;-77
2022/07/18 03:28:00;;;;;;;0.20;0.20;;;16.60;99.90;;;;;;5062367;28;20127;-77
2022/07/18 03:30:25;;;;;;;0.20;0.20;;;16.70;99.90;;;;;;5058817;28;20129;-77
2022/07/18 03:32:51;;;;;;;0.20;0.20;;;16.60;99.90;;;;;;5062323;28;20083;-77
2022/07/18 03:35:16;;;;;;;0.13;0.13;;;16.60;99.90;;;;;;5069944;28;20101;-76
2022/07/18 03:37:42;;;;;;;0.22;0.22;;;16.60;99.90;;;;;;5063154;28;20484;-77
2022/07/18 03:40:09;;;;;;;0.20;0.20;;;16.60;99.90;;;;;;5072901;28;20049;-77
2022/07/18 03:42:40;;;;;;;0.20;0.20;;;16.60;99.90;;;;;;5071233;28;20040;-78
2022/07/18 03:45:07;;;;;;;0.10;0.10;;;16.70;99.90;;;;;;5058838;28;20056;-77
2022/07/18 03:47:33;;;;;;;0.10;0.10;;;16.60;99.90;;;;;;5066767;28;20044;-77
2022/07/18 03:49:59;;;;;;;0.20;0.20;;;16.60;99.90;;;;;;5068752;28;20102;-77
2022/07/18 03:52:27;;;;;;;0.10;0.10;;;16.60;99.90;;;;;;5069861;28;20028;-77
2022/07/18 03:54:53;;;;;;;0.15;0.15;;;16.50;99.90;;;;;;5067101;28;20217;-77
2022/07/18 03:57:18;;;;;;;0.20;0.20;;;16.50;99.90;;;;;;5056375;28;20169;-77
2022/07/18 03:59:44;;;;;;;0.20;0.20;;;16.50;99.90;;;;;;5071586;28;20469;-77
2022/07/18 04:02:10;;;;;;;0.20;0.20;;;16.40;99.90;;;;;;5057361;28;20045;-77
2022/07/18 04:04:35;;;;;;;0.17;0.17;;;16.40;99.90;;;;;;5070026;28;20546;-78
2022/07/18 04:07:01;;;;;;;0.10;0.10;;;16.40;99.90;;;;;;5062341;28;20079;-78
2022/07/18 04:09:27;;;;;;;0.20;0.20;;;16.40;99.90;;;;;;5067587;28;20311;-78
2022/07/18 04:11:53;;;;;;;0.20;0.20;;;16.40;99.90;;;;;;5069774;28;20777;-78
2022/07/18 04:14:19;;;;;;;0.20;0.20;;;16.40;99.90;;;;;;5085442;28;20127;-77
2022/07/18 04:16:48;;;;;;;0.20;0.20;;;16.40;99.90;;;;;;5060352;28;20121;-77
2022/07/18 04:19:14;;;;;;;0.10;0.10;;;16.40;99.90;;;;;;5079536;28;20040;-77
2022/07/18 04:21:39;;;;;;;0.10;0.10;;;16.50;99.90;;;;;;5079432;28;20667;-78
2022/07/18 04:24:05;;;;;;;0.20;0.20;;;16.40;99.90;;;;;;5080267;28;20159;-78
2022/07/18 04:26:31;;;;;;;0.15;0.15;;;16.40;99.90;;;;;;5065039;28;20044;-78
2022/07/18 04:28:56;;;;;;;0.20;0.20;;;16.40;99.90;;;;;;5069598;28;20204;-78
2022/07/18 04:31:22;;;;;;;0.20;0.20;;;16.40;99.90;;;;;;5060701;28;20095;-78
2022/07/18 04:33:48;;;;;;;0.20;0.20;;;16.50;99.90;;;;;;5071957;28;20063;-78
2022/07/18 04:36:13;;;;;;;0.13;0.13;;;16.50;99.90;;;;;;5075716;28;20539;-78
2022/07/18 04:38:39;;;;;;;0.17;0.17;;;16.60;99.90;;;;;;5068836;28;20036;-77
2022/07/18 04:41:05;;;;;;;0.10;0.10;;;16.50;99.90;;;;;;5074644;28;20047;-77
2022/07/18 04:43:31;;;;;;;0.20;0.20;;;16.50;99.90;;;;;;5078440;28;20654;-77
2022/07/18 04:45:57;;;;;;;0.10;0.10;;;16.60;99.90;;;;;;5074066;28;20154;-77
2022/07/18 04:48:23;;;;;;;0.20;0.20;;;16.50;99.90;;;;;;5073599;28;20495;-77
2022/07/18 04:50:49;;;;;;;0.20;0.20;;;16.50;99.90;;;;;;5072906;28;20134;-78
2022/07/18 04:53:14;;;;;;;0.20;0.20;;;16.50;99.90;;;;;;5080022;28;20369;-77
2022/07/18 04:55:40;;;;;;;0.13;0.13;;;16.50;99.90;;;;;;5064002;28;20059;-78
2022/07/18 04:58:09;;;;;;;0.15;0.15;;;16.50;99.90;;;;;;5071661;28;20048;-78
2022/07/18 05:00:35;;;;;;;0.13;0.13;;;16.50;99.90;;;;;;5060760;28;20052;-78
2022/07/18 05:03:01;;;;;;;0.20;0.20;;;16.50;99.90;;;;;;5069713;28;20044;-77
2022/07/18 05:05:28;;;;;;;0.20;0.20;;;16.50;99.90;;;;;;5070234;28;20044;-77
2022/07/18 05:07:54;;;;;;;0.10;0.10;;;16.50;99.90;;;;;;5074642;28;20099;-77
2022/07/18 05:10:21;;;;;;;0.20;0.20;;;16.50;99.90;;;;;;5070552;28;20153;-77
2022/07/18 05:12:49;;;;;;;0.20;0.20;;;16.60;99.90;;;;;;5072196;28;20058;-78
2022/07/18 05:15:17;;;;;;;0.20;0.20;;;16.60;99.90;;;;;;5078707;28;20044;-77
2022/07/18 05:17:43;;;;;;;0.20;0.20;;;16.60;99.90;;;;;;5065570;28;20048;-77
2022/07/18 05:20:12;;;;;;;0.20;0.20;;;16.70;99.90;;;;;;5063184;28;20047;-77
2022/07/18 05:22:38;;;;;;;0.20;0.20;;;16.70;99.90;;;;;;5087891;28;20067;-77
2022/07/18 05:25:05;;;;;;;0.10;0.10;;;16.80;99.90;;;;;;5070467;28;20053;-77
2022/07/18 05:27:31;;;;;;;0.20;0.20;;;16.80;99.90;;;;;;5066267;28;20075;-77
2022/07/18 05:29:58;;;;;;;0.10;0.10;;;16.80;99.90;;;;;;5068489;28;20146;-77
2022/07/18 05:32:25;;;;;;;0.10;0.10;;;16.80;99.90;;;;;;5076434;28;20052;-77
2022/07/18 05:34:50;;;;;;;0.20;0.20;;;16.90;99.90;;;;;;5075851;28;20388;-78
2022/07/18 05:37:16;;;;;;;0.20;0.20;;;16.90;99.90;;;;;;5080428;28;20048;-77
2022/07/18 05:39:42;;;;;;;0.20;0.20;;;16.90;99.90;;;;;;5067783;28;20036;-77
2022/07/18 05:42:07;;;;;;;0.20;0.20;;;17.00;99.90;;;;;;5059655;28;20131;-78
2022/07/18 05:44:33;;;;;;;0.20;0.20;;;17.00;99.90;;;;;;5080614;28;20064;-78
2022/07/18 05:46:59;;;;;;;0.20;0.20;;;17.10;99.90;;;;;;5064653;28;20048;-78
2022/07/18 05:49:24;;;;;;;0.20;0.20;;;17.10;99.90;;;;;;5066659;28;20284;-78
2022/07/18 05:51:50;;;;;;;0.20;0.20;;;17.10;99.90;;;;;;5072786;28;20505;-78
2022/07/18 05:54:19;;;;;;;0.20;0.20;;;17.20;99.90;;;;;;5064273;28;20063;-77
2022/07/18 05:56:52;;;;;;;0.20;0.20;;;17.20;99.90;;;;;;5060556;28;20748;-77
2022/07/18 05:59:19;;;;;;;0.20;0.20;;;17.30;99.90;;;;;;5069860;28;20485;-78
2022/07/18 06:01:45;;;;;;;0.20;0.20;;;17.30;99.90;;;;;;5053152;28;20792;-78
2022/07/18 06:04:11;;;;;;;0.20;0.20;;;17.40;99.90;;;;;;5055961;28;20064;-77
2022/07/18 06:06:37;;;;;;;0.20;0.20;;;17.40;99.90;;;;;;5056650;28;20053;-76
2022/07/18 06:09:08;;;;;;;0.20;0.20;;;17.50;99.90;;;;;;5049437;28;20572;-78
2022/07/18 06:11:34;;;;;;;0.20;0.20;;;17.50;99.90;;;;;;5075272;28;20064;-78
2022/07/18 06:14:02;;;;;;;0.10;0.10;;;17.60;99.90;;;;;;5077381;28;20763;-77
2022/07/18 06:16:28;;;;;;;0.20;0.20;;;17.70;99.90;;;;;;5060178;28;20044;-78
2022/07/18 06:18:54;;;;;;;0.20;0.20;;;17.70;99.90;;;;;;5069901;28;20052;-77
2022/07/18 06:21:20;;;;;;;0.20;0.20;;;17.80;99.90;;;;;;5065377;28;20032;-77
2022/07/18 06:23:45;;;;;;;0.20;0.20;;;17.80;99.90;;;;;;5076827;28;20047;-78
2022/07/18 06:26:11;;;;;;;0.20;0.20;;;17.90;99.90;;;;;;5059275;28;20479;-78
2022/07/18 06:28:40;;;;;;;0.20;0.20;;;18.00;99.90;;;;;;5064396;28;20052;-78
2022/07/18 06:31:05;;;;;;;0.20;0.20;;;18.10;99.90;;;;;;5085019;28;20491;-77
2022/07/18 06:33:31;;;;;;;0.20;0.20;;;18.20;99.90;;;;;;5081169;28;20035;-76
2022/07/18 06:35:57;;;;;;;0.20;0.20;;;18.30;99.90;;;;;;5062852;28;20391;-77
2022/07/18 06:38:23;;;;;;;0.20;0.20;;;18.50;99.90;;;;;;5057650;28;20048;-77
2022/07/18 06:40:49;;;;;;;0.30;0.30;;;18.60;99.90;;;;;;5066600;28;20097;-77
2022/07/18 06:43:19;;;;;;;0.15;0.15;;;18.70;99.90;;;;;;5075667;28;20060;-78
2022/07/18 06:45:46;;;;;;;0.20;0.20;;;18.90;99.90;;;;;;5064462;28;20052;-77
2022/07/18 06:48:13;;;;;;;0.20;0.20;;;19.00;99.90;;;;;;5057776;28;20132;-77
2022/07/18 06:50:38;;;;;;;0.20;0.20;;;19.10;99.90;;;;;;5073625;28;20436;-76
2022/07/18 06:53:04;;;;;;;0.20;0.20;;;19.20;99.90;;;;;;5061336;28;20040;-78
2022/07/18 06:55:30;;;;;;;0.20;0.20;;;19.20;99.90;;;;;;5061996;28;20110;-77
2022/07/18 06:57:55;;;;;;;0.20;0.20;;;19.30;99.80;;;;;;5063314;28;20044;-77
2022/07/18 07:00:21;;;;;;;0.20;0.20;;;19.30;99.90;;;;;;5083802;28;20084;-77
2022/07/18 07:02:52;;;;;;;0.15;0.15;;;19.50;99.50;;;;;;5081514;28;20044;-77
2022/07/18 07:05:19;;;;;;;0.20;0.20;;;19.50;99.60;;;;;;5071205;28;20059;-77
2022/07/18 07:07:45;;;;;;;0.20;0.20;;;19.60;99.50;;;;;;5061859;28;20040;-77
2022/07/18 07:10:11;;;;;;;0.20;0.20;;;19.80;99.60;;;;;;5067014;28;20131;-78
2022/07/18 07:12:47;;;;;;;0.20;0.20;;;19.90;99.00;;;;;;5068133;28;20186;-78
2022/07/18 07:15:14;;;;;;;0.20;0.20;;;20.00;98.60;;;;;;5072523;28;20098;-78
2022/07/18 07:17:39;;;;;;;0.20;0.20;;;20.10;98.70;;;;;;5085312;28;20048;-78
2022/07/18 07:20:06;;;;;;;0.20;0.20;;;20.20;98.00;;;;;;5070424;28;20082;-79
2022/07/18 07:22:49;;;;;;;0.20;0.20;;;20.20;96.60;;;;;;5070085;28;20040;-79
2022/07/18 07:25:16;;;;;;;0.20;0.20;;;20.30;96.40;;;;;;5069404;28;20036;-79
2022/07/18 07:27:42;;;;;;;0.20;0.20;;;20.40;95.80;;;;;;5066595;28;20082;-80
2022/07/18 07:30:08;;;;;;;0.20;0.20;;;20.50;95.70;;;;;;5070091;28;20041;-79
2022/07/18 07:32:35;;;;;;;0.10;0.10;;;20.60;95.50;;;;;;5066265;28;20459;-78
2022/07/18 07:35:03;;;;;;;0.20;0.20;;;20.60;95.00;;;;;;5069513;28;20387;-79
2022/07/18 07:37:28;;;;;;;0.20;0.20;;;20.80;95.60;;;;;;5060379;28;20506;-81
2022/07/18 07:39:55;;;;;;;0.20;0.20;;;20.90;95.00;;;;;;5086203;28;20222;-79
2022/07/18 07:42:21;;;;;;;0.20;0.20;;;20.90;94.20;;;;;;5074568;28;20152;-80
2022/07/18 07:44:46;;;;;;;0.20;0.20;;;21.10;94.80;;;;;;5058414;28;20139;-80
2022/07/18 07:47:12;;;;;;;0.20;0.20;;;21.10;94.80;;;;;;5075430;28;20076;-79
2022/07/18 07:49:38;;;;;;;0.20;0.20;;;21.20;95.00;;;;;;5049844;28;20064;-78
2022/07/18 07:52:03;;;;;;;0.20;0.20;;;21.30;95.40;;;;;;5059602;28;20383;-78
2022/07/18 07:54:29;;;;;;;0.20;0.20;;;21.30;94.90;;;;;;5061955;28;20491;-79
2022/07/18 07:56:54;;;;;;;0.20;0.20;;;21.40;94.70;;;;;;5059984;28;20087;-78
2022/07/18 07:59:20;;;;;;;0.20;0.20;;;21.40;94.20;;;;;;5054583;28;20448;-77
2022/07/18 08:01:46;;;;;;;0.20;0.20;;;21.50;93.90;;;;;;5072032;28;20048;-79
2022/07/18 08:04:11;;;;;;;0.20;0.20;;;21.60;94.00;;;;;;5077440;28;20047;-79
2022/07/18 08:06:37;;;;;;;0.20;0.20;;;21.70;93.50;;;;;;5076441;28;20049;-82
2022/07/18 08:09:03;;;;;;;0.20;0.20;;;21.70;93.10;;;;;;5080575;28;20076;-80
2022/07/18 08:11:28;;;;;;;0.20;0.20;;;21.80;93.40;;;;;;5076461;28;20120;-78
2022/07/18 08:13:54;;;;;;;0.20;0.20;;;21.90;92.40;;;;;;5070023;28;20123;-79
2022/07/18 08:16:19;;;;;;;0.13;0.13;;;22.00;93.10;;;;;;5071027;28;20078;-78
2022/07/18 08:18:45;;;;;;;0.20;0.20;;;22.00;93.50;;;;;;5068073;28;20055;-79
2022/07/18 08:21:11;;;;;;;0.20;0.20;;;22.00;92.50;;;;;;5063012;28;20052;-79
2022/07/18 08:23:36;;;;;;;0.20;0.20;;;22.10;91.90;;;;;;5069350;28;20044;-79
2022/07/18 08:26:02;;;;;;;0.20;0.20;;;22.20;92.10;;;;;;5071993;28;20488;-79
2022/07/18 08:28:28;;;;;;;0.20;0.20;;;22.30;91.60;;;;;;5072586;28;20067;-79
2022/07/18 08:30:53;;;;;;;0.20;0.20;;;22.40;91.90;;;;;;5076698;28;20082;-79
2022/07/18 08:33:19;;;;;;;0.20;0.20;;;22.50;91.80;;;;;;5068711;28;20496;-79
2022/07/18 08:35:45;;;;;;;0.20;0.20;;;22.60;92.20;;;;;;5071276;28;20086;-78
2022/07/18 08:38:10;;;;;;;0.20;0.20;;;22.70;90.90;;;;;;5071493;28;20040;-78
2022/07/18 08:40:37;;;;;;;0.20;0.20;;;22.80;91.80;;;;;;5062123;28;20589;-79
2022/07/18 08:43:03;;;;;;;0.20;0.20;;;23.00;91.10;;;;;;5050688;28;20041;-79
2022/07/18 08:45:29;;;;;;;0.20;0.20;;;23.10;91.90;;;;;;5063899;28;20056;-78
2022/07/18 08:47:55;;;;;;;0.20;0.20;;;23.20;91.30;;;;;;5069693;28;20139;-78
2022/07/18 08:50:21;;;;;;;0.20;0.20;;;23.20;90.70;;;;;;5064137;28;20499;-78
2022/07/18 08:52:50;;;;;;;0.20;0.20;;;23.30;90.80;;;;;;5051590;28;20142;-78
2022/07/18 08:55:16;;;;;;;0.20;0.20;;;23.30;91.00;;;;;;5067042;28;20061;-79
2022/07/18 08:57:42;;;;;;;0.20;0.20;;;23.40;91.30;;;;;;5049603;28;20068;-78
2022/07/18 09:00:09;;;;;;;0.20;0.20;;;23.40;91.40;;;;;;5050081;28;20049;-78
2022/07/18 09:02:35;;;;;;;0.20;0.20;;;23.50;90.60;;;;;;5058913;28;20109;-79
2022/07/18 09:05:03;;;;;;;0.20;0.20;;;23.50;90.90;;;;;;5070715;28;20044;-78
2022/07/18 09:07:32;;;;;;;0.20;0.20;;;23.60;91.20;;;;;;5055956;28;20045;-79
2022/07/18 09:10:00;;;;;;;0.20;0.20;;;23.60;89.80;;;;;;5066729;28;20515;-79
2022/07/18 09:12:32;;;;;;;0.20;0.20;;;23.60;90.20;;;;;;5071812;28;20048;-79
2022/07/18 09:15:07;;;;;;;0.25;0.25;;;23.70;88.60;;;;;;5069866;28;20036;-78
2022/07/18 09:17:34;;;;;;;0.20;0.20;;;23.70;90.50;;;;;;5073102;28;20451;-78
2022/07/18 09:20:11;;;;;;;0.20;0.20;;;23.70;90.50;;;;;;5069147;28;20044;-79
2022/07/18 09:22:42;;;;;;;0.20;0.20;;;23.70;90.80;;;;;;5063130;28;20044;-78
2022/07/18 09:25:24;;;;;;;0.25;0.25;;;23.70;90.50;;;;;;5069465;28;20522;-79
2022/07/18 09:27:56;;;;;;;0.20;0.20;;;23.80;86.70;;;;;;5070328;28;20115;-79
2022/07/18 09:30:28;;;;;;;0.20;0.20;;;23.90;85.10;;;;;;5065926;28;20088;-79
2022/07/18 09:33:03;;;;;;;0.20;0.20;;;23.90;84.60;;;;;;5050145;28;20150;-79
2022/07/18 09:35:32;;;;;;;0.20;0.20;;;24.00;86.20;;;;;;5067330;28;20044;-78
2022/07/18 09:38:15;;;;;;;0.20;0.20;;;24.00;85.10;;;;;;5059062;28;20102;-79
2022/07/18 09:40:46;;;;;;;0.20;0.20;;;24.10;85.10;;;;;;5052628;28;20093;-78
2022/07/18 09:43:22;;;;;;;0.20;0.20;;;24.10;84.50;;;;;;5070681;28;20044;-79
2022/07/18 09:45:53;;;;;;;0.20;0.20;;;24.10;85.00;;;;;;5069803;28;20182;-79
2022/07/18 09:48:24;;;;;;;0.20;0.20;;;24.20;86.20;;;;;;5068318;28;20233;-79
2022/07/18 09:50:53;;;;;;;0.20;0.20;;;24.30;86.20;;;;;;5063093;28;20045;-79
2022/07/18 09:53:25;;;;;;;0.20;0.20;;;24.30;83.20;;;;;;5065750;28;20098;-78
2022/07/18 09:55:55;;;;;;;0.20;0.20;;;24.40;86.10;;;;;;5048077;28;20057;-79
2022/07/18 09:58:24;;;;;;;0.20;0.20;;;24.40;87.60;;;;;;5065473;28;20084;-79
2022/07/18 10:00:51;;;;;;;0.20;0.20;;;24.50;88.30;;;;;;5050965;28;20041;-79
2022/07/18 10:03:17;;;;;;;0.20;0.20;;;24.60;87.90;;;;;;5067863;28;20083;-80
2022/07/18 10:05:45;;;;;;;0.20;0.20;;;24.60;86.20;;;;;;5071806;28;20551;-79
2022/07/18 10:08:14;;;;;;;0.20;0.20;;;24.70;84.40;;;;;;5071848;28;20518;-80
2022/07/18 10:10:42;;;;;;;0.20;0.20;;;24.70;85.10;;;;;;5067376;28;20072;-79
2022/07/18 10:13:08;;;;;;;0.20;0.20;;;24.80;83.90;;;;;;5066406;28;20411;-79
2022/07/18 10:15:36;;;;;;;0.20;0.20;;;24.90;82.70;;;;;;5049030;28;20060;-79
2022/07/18 10:18:04;;;;;;;0.20;0.20;;;25.00;85.00;;;;;;5065134;28;20499;-78
2022/07/18 10:20:45;;;;;;;0.20;0.20;;;25.00;84.60;;;;;;5065021;28;20076;-79
2022/07/18 10:23:18;;;;;;;0.20;0.20;;;25.10;84.30;;;;;;5048591;28;20037;-79
2022/07/18 10:25:44;;;;;;;0.20;0.20;;;25.20;81.30;;;;;;5048248;28;20540;-80
2022/07/18 10:28:13;;;;;;;0.20;0.20;;;25.30;83.00;;;;;;5049747;28;20132;-80
2022/07/18 10:30:46;;;;;;;0.20;0.20;;;25.30;83.90;;;;;;5047622;28;20242;-78
2022/07/18 10:33:36;;;;;;;0.20;0.20;;;25.40;80.80;;;;;;5056558;28;20048;-77
2022/07/18 10:36:21;;;;;;;0.20;0.20;;;25.40;81.90;;;;;;5068774;28;20347;-78
2022/07/18 10:39:09;;;;;;;0.20;0.20;;;25.50;78.40;;;;;;5068036;28;20121;-78
2022/07/18 10:41:44;;;;;;;0.20;0.20;;;25.60;81.10;;;;;;5060183;28;20530;-77
2022/07/18 10:44:30;;;;;;;0.20;0.20;;;25.70;80.80;;;;;;5052780;28;20033;-77
2022/07/18 10:47:12;;;;;;;0.20;0.20;;;25.70;81.70;;;;;;5069750;28;20036;-77
2022/07/18 10:49:49;;;;;;;0.20;0.20;;;25.80;75.70;;;;;;5068497;28;20032;-78
2022/07/18 10:52:27;;;;;;;0.20;0.20;;;25.80;72.70;;;;;;5055034;28;20065;-78
2022/07/18 10:57:28;;;;;;;0.20;0.20;;;26.00;73.50;;;;;;5064045;28;20049;-78
2022/07/18 11:00:08;;;;;;;0.20;0.20;;;26.10;73.30;;;;;;5048968;28;20044;-78
2022/07/18 11:02:35;;;;;;;0.20;0.20;;;26.10;74.10;;;;;;5064671;28;20057;-79
2022/07/18 11:05:01;;;;;;;0.20;0.20;;;26.20;72.10;;;;;;5065930;28;20048;-80
2022/07/18 11:07:30;;;;;;;0.20;0.20;;;26.30;72.90;;;;;;5073498;28;20127;-79
2022/07/18 11:09:55;;;;;;;0.20;0.20;;;26.40;72.20;;;;;;5069290;28;20435;-79
2022/07/18 11:12:25;;;;;;;0.20;0.20;;;26.50;72.40;;;;;;5055091;28;20045;-79
2022/07/18 11:15:12;;;;;;;0.20;0.20;;;26.50;71.50;;;;;;5047267;28;20041;-79
2022/07/18 11:18:05;;;;;;;0.20;0.20;;;26.60;73.40;;;;;;5066358;28;20049;-79
2022/07/18 11:20:58;;;;;;;0.20;0.20;;;26.60;71.30;;;;;;5067229;28;20084;-79
2022/07/18 11:23:26;;;;;;;0.20;0.20;;;26.70;71.10;;;;;;5051250;28;20068;-78
2022/07/18 11:25:57;;;;;;;0.20;0.20;;;26.80;72.30;;;;;;5066783;28;20047;-79
2022/07/18 11:28:27;;;;;;;2.10;0.45;;;26.90;71.30;;;;;;5067974;28;20487;-78
2022/07/18 11:31:09;;;;;;;0.20;0.20;;;27.00;71.90;;;;;;5065527;28;20059;-79
2022/07/18 11:33:38;;;;;;;0.20;0.20;;;27.10;73.40;;;;;;5066850;28;20067;-79
2022/07/18 11:36:09;;;;;;;0.20;0.20;;;27.20;73.70;;;;;;5068487;28;20049;-79
2022/07/18 11:38:56;;;;;;;0.20;0.20;;;27.60;70.00;;;;;;5069456;28;20041;-79
2022/07/18 11:41:23;;;;;;;0.20;0.20;;;27.30;69.20;;;;;;5068459;28;20453;-79
2022/07/18 11:43:49;;;;;;;0.20;0.20;;;27.40;71.40;;;;;;5076051;28;20043;-81
2022/07/18 11:46:18;;;;;;;0.20;0.20;;;27.50;71.90;;;;;;5066555;28;20124;-79
2022/07/18 11:48:45;;;;;;;0.20;0.20;;;27.60;72.90;;;;;;5068558;28;20044;-78
2022/07/18 11:51:24;;;;;;;0.30;0.30;;;27.70;72.10;;;;;;5048519;28;20384;-79
2022/07/18 11:53:52;;;;;;;0.20;0.20;;;27.80;69.60;;;;;;5063467;28;20122;-79
2022/07/18 11:56:20;;;;;;;0.13;0.13;;;27.80;64.20;;;;;;5048483;28;20060;-79
2022/07/18 11:58:48;;;;;;;0.20;0.20;;;27.90;64.20;;;;;;5047401;28;20491;-79
2022/07/18 12:01:15;;;;;;;0.20;0.20;;;28.00;64.70;;;;;;5046579;28;20128;-79
2022/07/18 12:03:43;;;;;;;0.20;0.20;;;28.10;65.00;;;;;;5063970;28;20049;-78
2022/07/18 12:06:13;;;;;;;0.20;0.20;;;28.10;67.10;;;;;;5062716;28;20049;-79
2022/07/18 12:08:44;;;;;;;0.20;0.20;;;28.20;66.50;;;;;;5070742;28;20056;-80
2022/07/18 12:11:20;;;;;;;0.20;0.20;;;28.40;62.60;;;;;;5055297;28;20826;-80
2022/07/18 12:14:07;;;;;;;0.20;0.20;;;28.30;63.70;;;;;;5072393;28;20128;-79
2022/07/18 12:16:33;;;;;;;0.20;0.20;;;28.40;64.00;;;;;;5060867;28;20041;-79
2022/07/18 12:19:08;;;;;;;0.30;0.30;;;28.50;63.50;;;;;;5065467;28;20056;-78
2022/07/18 12:21:51;;;;;;;0.20;0.20;;;28.50;65.60;;;;;;5051317;28;20496;-79
2022/07/18 12:24:18;;;;;;;0.20;0.20;;;28.60;67.80;;;;;;5054999;28;20055;-79
2022/07/18 12:26:44;;;;;;;0.20;0.20;;;28.70;65.20;;;;;;5069552;28;20127;-78
2022/07/18 12:29:10;;;;;;;0.20;0.20;;;28.70;62.60;;;;;;5070849;28;20599;-79
2022/07/18 12:31:45;;;;;;;0.20;0.20;;;28.80;64.10;;;;;;5049856;28;20037;-78
2022/07/18 12:34:16;;;;;;;0.20;0.20;;;28.90;64.10;;;;;;5049784;28;20420;-78
2022/07/18 12:37:02;;;;;;;0.20;0.20;;;28.90;63.90;;;;;;5049735;28;20060;-79
2022/07/18 12:39:32;;;;;;;0.20;0.20;;;29.20;68.60;;;;;;5051612;28;20106;-79
2022/07/18 12:41:59;;;;;;;0.20;0.20;;;29.10;72.50;;;;;;5070811;28;20333;-80
2022/07/18 12:44:27;;;;;;;0.20;0.20;;;29.50;84.00;;;;;;5070868;28;20129;-79
2022/07/18 12:46:53;;;;;;;0.20;0.20;;;29.50;70.50;;;;;;5072122;28;20032;-79
2022/07/18 12:49:19;;;;;;;0.20;0.20;;;29.40;71.90;;;;;;5069496;28;20044;-80
2022/07/18 12:51:45;;;;;;;0.20;0.20;;;29.70;74.40;;;;;;5068547;28;20040;-79
2022/07/18 12:54:10;;;;;;;0.20;0.20;;;29.50;75.80;;;;;;5074197;28;20110;-79
2022/07/18 12:56:36;;;;;;;0.20;0.20;;;29.50;72.10;;;;;;5070783;28;20091;-80
2022/07/18 12:59:02;;;;;;;0.20;0.20;;;29.90;74.20;;;;;;5062037;28;20068;-80